createdAt,value
2019-05-14T00:00:57.714Z,4.00
2019-05-14T00:03:28.107Z,5.80
2019-05-14T00:05:58.523Z,4.10
2019-05-14T00:08:31.238Z,2.90
2019-05-14T00:11:01.597Z,2.50
2019-05-14T00:13:32.335Z,2.60
2019-05-14T00:16:02.825Z,2.20
2019-05-14T00:18:33.225Z,2.40
2019-05-14T00:21:03.646Z,2.90
2019-05-14T00:23:34.132Z,3.60
2019-05-14T00:26:04.468Z,3.70
2019-05-14T00:28:34.838Z,5.50
2019-05-14T00:31:05.326Z,5.00
2019-05-14T00:33:35.693Z,5.30
2019-05-14T00:36:06.009Z,4.70
2019-05-14T00:38:36.362Z,5.20
2019-05-14T00:41:06.736Z,7.20
2019-05-14T00:43:37.083Z,4.50
2019-05-14T00:46:07.447Z,3.10
2019-05-14T00:48:37.795Z,3.00
2019-05-14T00:51:08.212Z,4.00
2019-05-14T00:53:38.560Z,4.00
2019-05-14T00:56:10.888Z,5.10
2019-05-14T00:58:41.436Z,2.60
2019-05-14T01:01:12.036Z,3.10
2019-05-14T01:03:42.410Z,3.60
2019-05-14T01:06:12.778Z,5.80
2019-05-14T01:08:43.172Z,5.50
2019-05-14T01:11:13.551Z,7.40
2019-05-14T01:13:43.889Z,6.90
2019-05-14T01:16:14.285Z,10.10
2019-05-14T01:18:44.633Z,9.70
2019-05-14T01:21:15.005Z,5.70
2019-05-14T01:23:45.359Z,9.10
2019-05-14T01:26:15.717Z,8.20
2019-05-14T01:28:46.070Z,6.90
2019-05-14T01:31:16.441Z,8.00
2019-05-14T01:33:46.869Z,12.50
2019-05-14T01:36:17.311Z,9.50
2019-05-14T01:38:47.649Z,10.10
2019-05-14T01:41:18.034Z,11.30
2019-05-14T01:43:48.384Z,11.50
2019-05-14T01:46:20.874Z,11.30
2019-05-14T01:48:52.126Z,10.00
2019-05-14T01:51:22.659Z,14.90
2019-05-14T01:53:52.990Z,16.70
2019-05-14T01:56:23.359Z,24.60
2019-05-14T01:58:53.710Z,21.00
2019-05-14T02:01:24.078Z,25.60
2019-05-14T02:03:54.454Z,24.90
2019-05-14T02:06:24.829Z,32.90
2019-05-14T02:08:55.171Z,35.40
2019-05-14T02:11:25.540Z,45.60
2019-05-14T02:13:55.925Z,46.10
2019-05-14T02:16:26.354Z,45.00
2019-05-14T02:18:56.703Z,41.00
2019-05-14T02:21:27.076Z,47.60
2019-05-14T02:23:57.410Z,49.90
2019-05-14T02:26:27.828Z,72.90
2019-05-14T02:28:58.173Z,63.20
2019-05-14T02:31:29.181Z,67.40
2019-05-14T02:33:59.797Z,67.00
2019-05-14T02:36:31.002Z,95.60
2019-05-14T02:39:01.611Z,57.60
2019-05-14T02:41:32.120Z,61.50
2019-05-14T02:44:02.474Z,91.50
2019-05-14T02:46:32.850Z,99.90
2019-05-14T02:49:03.196Z,82.60
2019-05-14T02:51:33.561Z,95.60
2019-05-14T02:54:03.897Z,99.90
2019-05-14T02:56:34.282Z,99.90
2019-05-14T02:59:05.923Z,99.90
2019-05-14T03:01:40.419Z,99.90
2019-05-14T03:04:09.173Z,99.90
2019-05-14T03:06:39.898Z,99.90
2019-05-14T03:09:10.378Z,99.90
2019-05-14T03:11:40.865Z,99.90
2019-05-14T03:14:11.271Z,99.90
2019-05-14T03:16:41.706Z,99.90
2019-05-14T03:19:12.189Z,99.90
2019-05-14T03:21:42.711Z,99.90
2019-05-14T03:24:13.081Z,99.90
2019-05-14T03:26:43.606Z,99.90
2019-05-14T03:29:14.009Z,99.90
2019-05-14T03:31:44.385Z,99.90
2019-05-14T03:34:14.835Z,99.90
2019-05-14T03:36:45.290Z,99.90
2019-05-14T03:39:18.946Z,99.90
2019-05-14T03:41:49.891Z,99.90
2019-05-14T03:44:20.085Z,99.90
2019-05-14T03:46:55.089Z,99.90
2019-05-14T03:49:22.673Z,99.90
2019-05-14T03:51:53.062Z,99.90
2019-05-14T03:54:23.395Z,99.90
2019-05-14T03:56:53.758Z,99.90
2019-05-14T03:59:24.204Z,99.90
2019-05-14T04:01:54.764Z,99.90
2019-05-14T04:04:25.133Z,99.90
2019-05-14T04:06:59.918Z,99.90
2019-05-14T04:09:31.560Z,99.90
2019-05-14T04:12:04.075Z,99.90
2019-05-14T04:14:39.640Z,99.90
2019-05-14T04:17:15.809Z,99.90
2019-05-14T04:19:45.735Z,99.90
2019-05-14T04:22:19.034Z,99.90
2019-05-14T04:24:49.971Z,99.90
2019-05-14T04:27:22.225Z,99.90
2019-05-14T04:29:54.164Z,99.90
2019-05-14T04:32:29.162Z,99.90
2019-05-14T04:34:59.663Z,99.90
2019-05-14T04:37:30.407Z,99.90
2019-05-14T04:40:00.755Z,99.90
2019-05-14T04:42:31.230Z,99.90
2019-05-14T04:45:05.550Z,99.90
2019-05-14T04:47:37.380Z,99.90
2019-05-14T04:50:10.244Z,99.90
2019-05-14T04:52:40.343Z,99.90
2019-05-14T04:55:10.730Z,99.90
2019-05-14T04:57:41.122Z,99.90
2019-05-14T05:00:12.725Z,99.90
2019-05-14T05:02:43.331Z,99.90
2019-05-14T05:05:14.003Z,99.90
2019-05-14T05:07:44.458Z,99.90
2019-05-14T05:10:14.815Z,99.90
2019-05-14T05:12:45.198Z,99.90
2019-05-14T05:15:15.760Z,99.90
2019-05-14T05:17:51.799Z,99.90
2019-05-14T05:20:19.297Z,99.90
2019-05-14T05:22:49.948Z,99.90
2019-05-14T05:25:20.302Z,99.90
2019-05-14T05:27:50.877Z,99.90
2019-05-14T05:30:22.014Z,99.90
2019-05-14T05:32:52.382Z,99.90
2019-05-14T05:35:22.750Z,99.90
2019-05-14T05:37:53.119Z,99.90
2019-05-14T05:40:23.469Z,99.90
2019-05-14T05:42:53.851Z,99.90
2019-05-14T05:45:24.217Z,99.90
2019-05-14T05:47:58.330Z,99.90
2019-05-14T05:50:28.746Z,99.90
2019-05-14T05:52:58.701Z,99.90
2019-05-14T05:55:29.117Z,99.90
2019-05-14T05:57:59.509Z,99.90
2019-05-14T06:00:35.765Z,99.90
2019-05-14T06:03:10.871Z,99.90
2019-05-14T06:05:38.860Z,99.90
2019-05-14T06:08:09.664Z,99.90
2019-05-14T06:10:40.164Z,99.90
2019-05-14T06:13:13.798Z,99.90
2019-05-14T06:15:48.194Z,99.90
2019-05-14T06:18:18.360Z,99.90
2019-05-14T06:20:49.223Z,99.90
2019-05-14T06:23:19.064Z,99.90
2019-05-14T06:25:49.504Z,99.90
2019-05-14T06:28:20.945Z,99.90
2019-05-14T06:30:51.716Z,99.90
2019-05-14T06:33:22.074Z,99.90
2019-05-14T06:35:52.475Z,99.90
2019-05-14T06:38:22.830Z,99.90
2019-05-14T06:40:53.240Z,99.90
2019-05-14T06:43:23.746Z,99.90
2019-05-14T06:45:54.152Z,99.90
2019-05-14T06:48:30.777Z,99.90
2019-05-14T06:50:58.265Z,99.90
2019-05-14T06:53:29.315Z,99.90
2019-05-14T06:55:59.980Z,99.90
2019-05-14T06:58:30.350Z,99.90
2019-05-14T07:01:00.753Z,99.90
2019-05-14T07:03:31.196Z,99.90
2019-05-14T07:06:01.642Z,97.10
2019-05-14T07:08:32.020Z,95.80
2019-05-14T07:11:02.395Z,95.00
2019-05-14T07:13:32.762Z,93.70
2019-05-14T07:16:04.926Z,96.20
2019-05-14T07:18:46.419Z,94.30
2019-05-14T07:21:08.223Z,94.60
2019-05-14T07:23:38.847Z,92.30
2019-05-14T07:26:09.246Z,91.60
2019-05-14T07:28:41.938Z,91.90
2019-05-14T07:31:11.715Z,91.70
2019-05-14T07:33:42.077Z,86.90
2019-05-14T07:36:12.467Z,92.10
2019-05-14T07:38:42.825Z,88.60
2019-05-14T07:41:13.210Z,90.00
2019-05-14T07:43:43.565Z,86.40
2019-05-14T07:46:14.025Z,90.30
2019-05-14T07:48:44.370Z,87.90
2019-05-14T07:51:14.745Z,85.00
2019-05-14T07:53:45.109Z,84.50
2019-05-14T07:56:15.562Z,86.90
2019-05-14T07:58:45.914Z,83.90
2019-05-14T08:01:18.751Z,84.10
2019-05-14T08:03:49.369Z,84.90
2019-05-14T08:06:19.770Z,85.50
2019-05-14T08:08:50.146Z,83.20
2019-05-14T08:11:20.571Z,80.20
2019-05-14T08:13:50.949Z,77.90
2019-05-14T08:16:21.324Z,76.50
2019-05-14T08:18:51.673Z,78.40
2019-05-14T08:21:22.083Z,79.30
2019-05-14T08:23:52.428Z,78.60
2019-05-14T08:26:22.833Z,80.10
2019-05-14T08:28:53.210Z,81.50
2019-05-14T08:31:23.621Z,82.70
2019-05-14T08:33:53.992Z,80.60
2019-05-14T08:36:24.625Z,85.80
2019-05-14T08:38:55.091Z,79.70
2019-05-14T08:41:25.521Z,79.30
2019-05-14T08:43:55.922Z,84.30
2019-05-14T08:46:28.305Z,85.10
2019-05-14T08:48:58.755Z,86.40
2019-05-14T08:51:29.784Z,83.20
2019-05-14T08:54:00.203Z,86.20
2019-05-14T08:56:30.561Z,87.10
2019-05-14T08:59:00.942Z,88.10
2019-05-14T09:01:31.300Z,90.30
2019-05-14T09:04:01.674Z,83.00
2019-05-14T09:06:32.109Z,82.30
2019-05-14T09:09:02.466Z,78.50
2019-05-14T09:11:35.731Z,81.10
2019-05-14T09:14:04.996Z,81.50
2019-05-14T09:16:45.506Z,88.20
2019-05-14T09:19:08.738Z,86.90
2019-05-14T09:21:39.916Z,90.00
2019-05-14T09:24:10.449Z,82.60
2019-05-14T09:26:40.913Z,74.30
2019-05-14T09:30:08.991Z,71.90
2019-05-14T09:31:43.337Z,65.00
2019-05-14T09:34:13.681Z,66.80
2019-05-14T09:36:44.066Z,77.10
2019-05-14T09:39:14.430Z,87.40
2019-05-14T09:41:44.816Z,94.70
2019-05-14T09:44:15.172Z,99.90
2019-05-14T09:46:45.541Z,99.90
2019-05-14T09:49:15.918Z,99.40
2019-05-14T09:51:48.735Z,99.90
2019-05-14T09:54:19.247Z,99.90
2019-05-14T09:56:49.960Z,96.90
2019-05-14T09:59:20.373Z,97.70
2019-05-14T10:01:51.001Z,99.90
2019-05-14T10:04:21.357Z,99.90
2019-05-14T10:06:51.760Z,99.90
2019-05-14T10:09:22.127Z,99.90
2019-05-14T10:11:52.605Z,99.90
2019-05-14T10:14:22.949Z,99.90
2019-05-14T10:16:53.326Z,99.90
2019-05-14T10:19:23.690Z,94.70
2019-05-14T10:21:54.203Z,92.40
2019-05-14T10:24:24.573Z,99.90
2019-05-14T10:26:54.970Z,88.90
2019-05-14T10:29:25.393Z,87.60
2019-05-14T10:31:55.767Z,86.10
2019-05-14T10:34:28.539Z,77.80
2019-05-14T10:36:59.141Z,77.00
2019-05-14T10:39:30.092Z,80.90
2019-05-14T10:42:00.626Z,80.40
2019-05-14T10:44:30.983Z,78.70
2019-05-14T10:47:01.457Z,73.20
2019-05-14T10:49:52.397Z,79.70
2019-05-14T10:52:22.778Z,70.40
2019-05-14T10:54:55.699Z,68.00
2019-05-14T10:57:25.225Z,70.20
2019-05-14T10:59:55.612Z,72.70
2019-05-14T11:02:26.116Z,71.00
2019-05-14T11:04:58.562Z,70.80
2019-05-14T11:07:29.241Z,70.80
2019-05-14T11:09:59.808Z,70.60
2019-05-14T11:12:30.181Z,72.20
2019-05-14T11:15:00.562Z,70.10
2019-05-14T11:17:30.967Z,68.10
2019-05-14T11:20:01.324Z,67.70
2019-05-14T11:22:31.803Z,65.30
2019-05-14T11:25:02.195Z,61.80
2019-05-14T11:27:32.611Z,56.80
2019-05-14T11:30:02.970Z,50.00
2019-05-14T11:32:33.366Z,47.60
2019-05-14T11:35:03.770Z,66.00
2019-05-14T11:37:34.241Z,55.10
2019-05-14T11:40:05.122Z,57.20
2019-05-14T11:42:35.563Z,57.40
2019-05-14T11:45:08.807Z,54.30
2019-05-14T11:47:38.881Z,50.90
2019-05-14T11:50:10.162Z,52.30
2019-05-14T11:52:40.645Z,55.30
2019-05-14T11:55:11.308Z,55.70
2019-05-14T11:57:41.771Z,53.20
2019-05-14T12:00:13.766Z,49.00
2019-05-14T12:02:44.167Z,47.50
2019-05-14T12:05:14.534Z,42.50
2019-05-14T12:07:44.933Z,43.50
2019-05-14T12:10:15.411Z,40.60
2019-05-14T12:12:45.900Z,45.00
2019-05-14T12:15:18.736Z,43.10
2019-05-14T12:17:50.964Z,45.30
2019-05-14T12:20:21.498Z,46.00
2019-05-14T12:22:51.907Z,46.10
2019-05-14T12:25:22.251Z,45.60
2019-05-14T12:27:52.698Z,45.90
2019-05-14T12:30:23.068Z,44.80
2019-05-14T12:32:53.438Z,45.10
2019-05-14T12:35:23.835Z,45.90
2019-05-14T12:37:54.222Z,46.10
2019-05-14T12:40:24.620Z,48.70
2019-05-14T12:42:55.010Z,49.60
2019-05-14T12:45:25.457Z,53.20
2019-05-14T12:47:58.224Z,52.30
2019-05-14T12:50:27.975Z,57.00
2019-05-14T12:52:58.826Z,56.70
2019-05-14T12:55:29.426Z,56.20
2019-05-14T12:57:59.923Z,54.30
2019-05-14T13:00:30.325Z,56.00
2019-05-14T13:03:00.711Z,53.60
2019-05-14T13:05:31.130Z,55.30
2019-05-14T13:08:01.526Z,55.30
2019-05-14T13:10:32.049Z,53.50
2019-05-14T13:13:02.410Z,50.20
2019-05-14T13:15:32.871Z,46.40
2019-05-14T13:18:03.237Z,45.90
2019-05-14T13:20:33.634Z,45.40
2019-05-14T13:23:04.002Z,49.10
2019-05-14T13:25:34.386Z,51.50
2019-05-14T13:28:04.791Z,48.60
2019-05-14T13:30:35.224Z,50.10
2019-05-14T13:33:05.598Z,47.80
2019-05-14T13:35:38.965Z,48.30
2019-05-14T13:38:14.346Z,47.40
2019-05-14T13:40:41.728Z,46.00
2019-05-14T13:43:14.378Z,48.00
2019-05-14T13:45:44.724Z,43.50
2019-05-14T13:48:15.133Z,42.30
2019-05-14T13:50:48.738Z,38.20
2019-05-14T13:53:18.970Z,36.40
2019-05-14T13:55:57.198Z,39.10
2019-05-14T13:58:21.764Z,37.90
2019-05-14T14:00:52.434Z,38.90
2019-05-14T14:03:23.126Z,39.90
2019-05-14T14:05:53.657Z,43.00
2019-05-14T14:08:24.010Z,42.70
2019-05-14T14:10:54.729Z,43.90
2019-05-14T14:13:25.227Z,42.60
2019-05-14T14:15:58.673Z,40.40
2019-05-14T14:18:29.299Z,40.80
2019-05-14T14:20:59.970Z,43.90
2019-05-14T14:23:31.212Z,39.80
2019-05-14T14:26:02.236Z,34.50
2019-05-14T14:28:32.629Z,34.10
2019-05-14T14:31:05.363Z,34.70
2019-05-14T14:33:35.140Z,35.10
2019-05-14T14:36:05.537Z,38.30
2019-05-14T14:38:35.924Z,39.90
2019-05-14T14:41:09.738Z,39.90
2019-05-14T14:43:43.480Z,39.30
2019-05-14T14:46:13.886Z,37.40
2019-05-14T14:48:42.819Z,36.50
2019-05-14T14:51:13.474Z,38.20
2019-05-14T14:53:57.742Z,40.60
2019-05-14T14:56:15.978Z,39.90
2019-05-14T14:58:49.113Z,41.20
2019-05-14T15:01:19.802Z,30.60
2019-05-14T15:03:51.265Z,41.30
2019-05-14T15:06:21.998Z,40.10
2019-05-14T15:08:52.346Z,54.40
2019-05-14T15:11:22.846Z,39.60
2019-05-14T15:13:53.351Z,49.60
2019-05-14T15:16:23.772Z,52.50
2019-05-14T15:18:54.254Z,33.70
2019-05-14T15:21:24.709Z,32.80
2019-05-14T15:24:07.319Z,33.10
2019-05-14T15:26:30.377Z,36.00
2019-05-14T15:29:00.804Z,38.10
2019-05-14T15:31:31.212Z,38.60
2019-05-14T15:34:01.669Z,38.20
2019-05-14T15:36:32.099Z,36.30
2019-05-14T15:39:02.490Z,36.50
2019-05-14T15:41:33.537Z,35.20
2019-05-14T15:44:03.934Z,32.00
2019-05-14T15:46:34.405Z,30.30
2019-05-14T15:49:04.845Z,29.10
2019-05-14T15:51:35.250Z,28.70
2019-05-14T15:54:31.171Z,25.90
2019-05-14T15:56:39.446Z,25.20
2019-05-14T15:59:10.098Z,26.20
2019-05-14T16:01:40.700Z,25.00
2019-05-14T16:04:11.584Z,26.10
2019-05-14T16:06:42.078Z,25.50
2019-05-14T16:09:12.548Z,35.60
2019-05-14T16:11:43.092Z,23.60
2019-05-14T16:14:13.501Z,26.40
2019-05-14T16:16:43.925Z,27.20
2019-05-14T16:19:14.301Z,28.20
2019-05-14T16:21:44.799Z,30.10
2019-05-14T16:24:15.320Z,27.60
2019-05-14T16:26:45.745Z,27.70
2019-05-14T16:29:16.175Z,27.00
2019-05-14T16:31:48.644Z,24.60
2019-05-14T16:34:18.678Z,23.60
2019-05-14T16:36:49.080Z,21.60
2019-05-14T16:39:19.438Z,20.40
2019-05-14T16:41:49.863Z,20.40
2019-05-14T16:44:20.309Z,21.40
2019-05-14T16:46:50.818Z,22.10
2019-05-14T16:49:21.222Z,21.70
2019-05-14T16:51:51.687Z,23.20
2019-05-14T16:54:22.039Z,22.30
2019-05-14T16:56:52.445Z,22.10
2019-05-14T16:59:22.822Z,21.30
2019-05-14T17:01:53.214Z,20.40
2019-05-14T17:04:23.638Z,19.50
2019-05-14T17:06:54.049Z,19.90
2019-05-14T17:09:24.522Z,20.00
2019-05-14T17:11:59.027Z,20.10
2019-05-14T17:14:29.546Z,21.10
2019-05-14T17:16:59.956Z,20.40
2019-05-14T17:19:30.354Z,19.90
2019-05-14T17:22:01.326Z,18.70
2019-05-14T17:24:31.728Z,17.20
2019-05-14T17:27:02.176Z,16.30
2019-05-14T17:29:32.616Z,16.00
2019-05-14T17:32:03.062Z,16.60
2019-05-14T17:34:33.491Z,15.70
2019-05-14T17:37:04.248Z,15.60
2019-05-14T17:39:34.726Z,14.90
2019-05-14T17:42:05.224Z,14.80
2019-05-14T17:44:35.579Z,15.30
2019-05-14T17:47:05.999Z,15.10
2019-05-14T17:49:38.947Z,16.10
2019-05-14T17:52:08.538Z,15.20
2019-05-14T17:54:41.912Z,15.60
2019-05-14T17:57:11.128Z,15.50
2019-05-14T17:59:41.626Z,15.90
2019-05-14T18:02:12.054Z,16.60
2019-05-14T18:04:44.581Z,12.50
2019-05-14T18:07:15.060Z,16.70
2019-05-14T18:09:45.682Z,15.60
2019-05-14T18:12:18.493Z,26.70
2019-05-14T18:14:48.258Z,15.10
2019-05-14T18:17:19.019Z,14.60
2019-05-14T18:19:52.941Z,26.10
2019-05-14T18:22:23.339Z,13.70
2019-05-14T18:24:53.714Z,14.50
2019-05-14T18:27:24.157Z,13.60
2019-05-14T18:29:54.607Z,13.60
2019-05-14T18:32:24.994Z,12.50
2019-05-14T18:34:57.992Z,12.50
2019-05-14T18:37:29.003Z,10.70
2019-05-14T18:39:59.675Z,11.70
2019-05-14T18:42:30.097Z,10.60
2019-05-14T18:45:00.549Z,9.80
2019-05-14T18:47:30.919Z,8.80
2019-05-14T18:50:01.380Z,8.90
2019-05-14T18:52:31.828Z,7.70
2019-05-14T18:55:02.229Z,7.60
2019-05-14T18:57:32.645Z,8.40
2019-05-14T19:00:03.109Z,8.50
2019-05-14T19:02:33.533Z,8.30
2019-05-14T19:05:04.107Z,6.70
2019-05-14T19:07:34.519Z,7.30
2019-05-14T19:10:05.434Z,7.60
2019-05-14T19:12:38.483Z,6.80
2019-05-14T19:15:09.069Z,7.60
2019-05-14T19:17:39.488Z,7.50
2019-05-14T19:20:10.266Z,7.00
2019-05-14T19:22:40.651Z,7.20
2019-05-14T19:25:11.087Z,5.20
2019-05-14T19:27:41.571Z,5.40
2019-05-14T19:30:13.277Z,6.60
2019-05-14T19:32:43.649Z,1.00
2019-05-14T19:35:14.873Z,5.90
2019-05-14T19:37:48.486Z,5.80
2019-05-14T19:40:18.901Z,5.40
2019-05-14T19:42:49.592Z,5.00
2019-05-14T19:45:20.030Z,6.30
2019-05-14T19:47:50.409Z,5.40
2019-05-14T19:50:20.853Z,5.20
2019-05-14T19:52:51.242Z,5.20
2019-05-14T19:55:21.772Z,6.70
2019-05-14T19:57:52.260Z,6.50
2019-05-14T20:00:28.611Z,6.40
2019-05-14T20:02:58.549Z,6.50
2019-05-14T20:05:29.050Z,6.80
2019-05-14T20:07:59.460Z,7.80
2019-05-14T20:10:29.963Z,9.00
2019-05-14T20:13:00.405Z,8.60
2019-05-14T20:15:30.817Z,9.80
2019-05-14T20:18:01.194Z,9.60
2019-05-14T20:20:31.643Z,8.80
2019-05-14T20:23:02.039Z,17.30
2019-05-14T20:25:32.460Z,11.30
2019-05-14T20:28:02.930Z,9.20
2019-05-14T20:30:33.314Z,9.10
2019-05-14T20:33:03.739Z,11.30
2019-05-14T20:35:34.954Z,10.20
2019-05-14T20:38:05.698Z,11.10
2019-05-14T20:40:38.015Z,11.60
2019-05-14T20:43:10.332Z,12.30
2019-05-14T20:45:40.379Z,12.20
2019-05-14T20:48:10.820Z,12.10
2019-05-14T20:50:41.295Z,12.00
2019-05-14T20:53:11.703Z,13.00
2019-05-14T20:55:42.240Z,14.50
2019-05-14T20:58:12.691Z,14.20
2019-05-14T21:00:43.221Z,14.10
2019-05-14T21:03:13.566Z,14.30
2019-05-14T21:05:44.136Z,16.50
2019-05-14T21:08:14.568Z,15.60
2019-05-14T21:10:44.942Z,17.00
2019-05-14T21:13:15.318Z,29.80
2019-05-14T21:15:48.142Z,19.50
2019-05-14T21:18:19.008Z,22.00
2019-05-14T21:20:49.553Z,22.00
2019-05-14T21:23:19.937Z,23.30
2019-05-14T21:25:50.325Z,26.10
2019-05-14T21:28:20.725Z,24.60
2019-05-14T21:30:52.834Z,25.70
2019-05-14T21:33:23.270Z,26.00
2019-05-14T21:35:53.618Z,29.10
2019-05-14T21:38:24.046Z,28.40
2019-05-14T21:40:54.419Z,27.60
2019-05-14T21:43:24.834Z,28.70
2019-05-14T21:45:55.185Z,31.00
2019-05-14T21:48:25.598Z,29.60
2019-05-14T21:50:55.977Z,30.00
2019-05-14T21:53:26.403Z,30.40
2019-05-14T21:55:58.622Z,31.80
2019-05-14T21:58:29.224Z,34.40
2019-05-14T22:01:00.272Z,34.20
2019-05-14T22:03:31.046Z,33.90
2019-05-14T22:06:01.415Z,37.90
2019-05-14T22:08:31.874Z,43.40
2019-05-14T22:11:02.266Z,47.00
2019-05-14T22:13:32.681Z,44.10
2019-05-14T22:16:03.868Z,43.30
2019-05-14T22:18:34.694Z,47.60
2019-05-14T22:21:05.107Z,50.60
2019-05-14T22:23:35.478Z,49.30
2019-05-14T22:26:05.838Z,53.30
2019-05-14T22:28:36.250Z,54.40
2019-05-14T22:31:08.855Z,53.50
2019-05-14T22:33:38.754Z,54.30
2019-05-14T22:36:09.130Z,59.20
2019-05-14T22:38:39.601Z,58.30
2019-05-14T22:41:11.517Z,50.10
2019-05-14T22:43:42.172Z,65.60
2019-05-14T22:46:12.541Z,73.40
2019-05-14T22:48:42.931Z,80.40
2019-05-14T22:51:13.294Z,78.60
2019-05-14T22:53:43.762Z,89.80
2019-05-14T22:56:14.189Z,96.50
2019-05-14T22:58:44.589Z,96.40
2019-05-14T23:01:15.356Z,99.90
2019-05-14T23:03:45.923Z,99.90
2019-05-14T23:06:18.533Z,99.90
2019-05-14T23:08:48.814Z,99.90
2019-05-14T23:11:19.896Z,99.90
2019-05-14T23:13:50.445Z,99.90
2019-05-14T23:16:33.666Z,99.90
2019-05-14T23:18:52.941Z,99.90
2019-05-14T23:21:23.314Z,99.90
2019-05-14T23:23:53.694Z,99.90
2019-05-14T23:26:24.133Z,99.90
2019-05-14T23:28:54.565Z,99.90
2019-05-14T23:31:24.973Z,99.90
2019-05-14T23:33:55.399Z,99.90
2019-05-14T23:36:25.851Z,99.90
2019-05-14T23:38:59.420Z,99.90
2019-05-14T23:41:29.773Z,99.90
2019-05-14T23:44:00.222Z,99.90
2019-05-14T23:46:30.645Z,99.90
2019-05-14T23:49:01.017Z,99.90
2019-05-14T23:51:31.402Z,99.90
2019-05-14T23:54:01.774Z,99.90
2019-05-14T23:56:32.190Z,99.90
2019-05-14T23:59:02.590Z,99.90
